createdAt,value
2018-06-25T00:02:32.763Z,2.13
2018-06-25T00:08:27.695Z,2.23
2018-06-25T00:14:22.718Z,2.23
2018-06-25T00:20:17.744Z,2.35
2018-06-25T00:26:12.675Z,2.67
2018-06-25T00:32:07.806Z,2.71
2018-06-25T00:38:02.768Z,2.56
2018-06-25T00:43:57.718Z,3.09
2018-06-25T00:49:52.741Z,2.94
2018-06-25T00:55:47.759Z,2.67
2018-06-25T01:01:42.725Z,2.48
2018-06-25T01:07:37.713Z,2.3
2018-06-25T01:13:32.768Z,2.11
2018-06-25T01:19:27.750Z,2.56
2018-06-25T01:25:22.744Z,2.34
2018-06-25T01:31:17.798Z,2.17
2018-06-25T01:37:12.767Z,2.22
2018-06-25T01:43:07.783Z,2.29
2018-06-25T01:49:02.750Z,2.42
2018-06-25T01:54:57.843Z,2.42
2018-06-25T02:00:52.787Z,2.76
2018-06-25T02:06:47.822Z,2.38
2018-06-25T02:12:42.789Z,2.31
2018-06-25T02:18:37.770Z,2.47
2018-06-25T02:24:32.828Z,2.57
2018-06-25T02:30:27.871Z,2.72
2018-06-25T02:36:22.846Z,2.63
2018-06-25T02:42:17.833Z,2.88
2018-06-25T02:48:12.814Z,2.58
2018-06-25T02:54:07.827Z,2.44
2018-06-25T03:00:03.068Z,2.66
2018-06-25T03:05:57.834Z,2.69
2018-06-25T03:11:52.865Z,2.33
2018-06-25T03:17:47.847Z,2.6
2018-06-25T03:23:42.813Z,2.59
2018-06-25T03:29:37.809Z,2.67
2018-06-25T03:35:32.852Z,2.67
2018-06-25T03:41:27.841Z,2.56
2018-06-25T03:47:22.902Z,2.78
2018-06-25T03:53:17.852Z,2.52
2018-06-25T03:59:12.874Z,2.74
2018-06-25T04:05:07.873Z,2.7
2018-06-25T04:11:02.885Z,2.77
2018-06-25T04:16:57.907Z,2.84
2018-06-25T04:22:52.903Z,3.17
2018-06-25T04:28:47.873Z,2.69
2018-06-25T04:34:42.924Z,2.74
2018-06-25T04:40:37.919Z,3.05
2018-06-25T04:46:32.913Z,2.79
2018-06-25T04:52:27.915Z,2.75
2018-06-25T04:58:22.964Z,3
2018-06-25T05:04:17.898Z,2.88
2018-06-25T05:10:12.903Z,3.21
2018-06-25T05:16:07.954Z,2.77
2018-06-25T05:22:02.927Z,3.22
2018-06-25T05:27:57.908Z,2.93
2018-06-25T05:33:52.894Z,2.79
2018-06-25T05:39:47.886Z,3.12
2018-06-25T05:45:43.000Z,3.11
2018-06-25T05:51:37.928Z,3.24
2018-06-25T05:57:32.965Z,2.83
2018-06-25T06:03:27.921Z,2.91
2018-06-25T06:09:22.989Z,2.64
2018-06-25T06:15:17.936Z,2.8
2018-06-25T06:21:12.954Z,2.57
2018-06-25T06:27:07.963Z,2.6
2018-06-25T06:33:02.950Z,2.87
2018-06-25T06:38:57.977Z,2.83
2018-06-25T06:44:53.012Z,2.72
2018-06-25T06:50:48.142Z,2.67
2018-06-25T06:56:42.989Z,2.81
2018-06-25T07:02:38.081Z,2.6
2018-06-25T07:08:32.975Z,2.55
2018-06-25T07:14:28.032Z,2.1
2018-06-25T07:20:23.011Z,2.79
2018-06-25T07:26:18.051Z,2.55
2018-06-25T07:32:13.064Z,2.46
2018-06-25T07:38:08.055Z,2.25
2018-06-25T07:44:03.006Z,3.39
2018-06-25T07:49:58.013Z,2.33
2018-06-25T07:55:53.030Z,2.54
2018-06-25T08:01:48.091Z,2.55
2018-06-25T08:07:43.017Z,2.56
2018-06-25T08:13:38.063Z,2.6
2018-06-25T08:19:33.048Z,2.33
2018-06-25T08:25:28.047Z,2.35
2018-06-25T08:31:23.108Z,2.77
2018-06-25T08:37:18.051Z,2.64
2018-06-25T08:43:13.040Z,2.12
2018-06-25T08:49:08.086Z,1.42
2018-06-25T08:55:03.046Z,1.52
2018-06-25T09:00:58.065Z,1.41
2018-06-25T09:06:53.117Z,1.17
2018-06-25T09:12:48.079Z,1.11
2018-06-25T09:18:43.122Z,1.02
2018-06-25T09:24:38.105Z,0.98
2018-06-25T09:30:33.114Z,0.84
2018-06-25T09:36:28.120Z,0.95
2018-06-25T09:42:23.108Z,1.37
2018-06-25T09:48:18.137Z,0.89
2018-06-25T09:54:13.133Z,0.76
2018-06-25T10:00:08.137Z,1.12
2018-06-25T10:06:03.171Z,0.93
2018-06-25T10:11:58.161Z,1.02
2018-06-25T10:17:53.157Z,1.17
2018-06-25T10:23:48.139Z,1.04
2018-06-25T10:29:43.114Z,1.32
2018-06-25T10:35:38.160Z,1.33
2018-06-25T10:41:33.191Z,1.27
2018-06-25T10:47:28.140Z,1.1
2018-06-25T10:53:23.162Z,1.38
2018-06-25T10:59:18.177Z,1
2018-06-25T11:05:13.216Z,0.69
2018-06-25T11:11:08.266Z,0.77
2018-06-25T11:17:03.183Z,0.64
2018-06-25T11:22:58.197Z,0.72
2018-06-25T11:28:53.184Z,0.61
2018-06-25T11:34:48.284Z,0.54
2018-06-25T11:40:43.242Z,0.61
2018-06-25T11:46:38.200Z,0.62
2018-06-25T11:52:33.262Z,0.54
2018-06-25T11:58:28.228Z,0.54
2018-06-25T12:04:23.215Z,0.5
2018-06-25T12:10:18.241Z,0.5
2018-06-25T12:16:13.228Z,0.64
2018-06-25T12:22:08.236Z,1.33
2018-06-25T12:28:03.249Z,1.1
2018-06-25T12:33:58.258Z,0.88
2018-06-25T12:39:53.226Z,0.51
2018-06-25T12:45:48.320Z,0.58
2018-06-25T12:51:43.258Z,0.63
2018-06-25T12:57:38.259Z,0.63
2018-06-25T13:03:33.259Z,0.61
2018-06-25T13:09:28.275Z,0.9
2018-06-25T13:15:23.293Z,0.73
2018-06-25T13:21:18.261Z,0.65
2018-06-25T13:27:13.286Z,0.4
2018-06-25T13:33:08.305Z,0.46
2018-06-25T13:39:03.324Z,0.36
2018-06-25T13:44:58.329Z,0.34
2018-06-25T13:50:53.318Z,0.33
2018-06-25T13:56:48.338Z,0.48
2018-06-25T14:02:43.357Z,0.5
2018-06-25T14:08:38.367Z,0.45
2018-06-25T14:14:33.337Z,0.43
2018-06-25T14:20:28.419Z,0.43
2018-06-25T14:26:23.414Z,0.49
2018-06-25T14:32:18.330Z,0.6
2018-06-25T14:38:13.373Z,0.41
2018-06-25T14:44:08.386Z,0.38
2018-06-25T14:50:03.363Z,0.44
2018-06-25T14:55:58.362Z,0.29
2018-06-25T15:01:53.359Z,0.29
2018-06-25T15:07:48.368Z,0.38
2018-06-25T15:13:43.365Z,0.46
2018-06-25T15:19:38.392Z,0.33
2018-06-25T15:25:33.390Z,0.48
2018-06-25T15:31:28.479Z,0.47
2018-06-25T15:37:23.467Z,0.43
2018-06-25T15:43:18.428Z,0.37
2018-06-25T15:49:13.450Z,0.4
2018-06-25T15:55:08.444Z,0.39
2018-06-25T16:01:03.419Z,0.46
2018-06-25T16:06:58.557Z,0.4
2018-06-25T16:12:53.483Z,0.41
2018-06-25T16:18:48.546Z,0.42
2018-06-25T16:24:43.478Z,0.45
2018-06-25T16:30:38.496Z,0.39
2018-06-25T16:36:33.512Z,0.52
2018-06-25T16:42:28.452Z,0.58
2018-06-25T16:48:23.505Z,0.59
2018-06-25T16:54:18.474Z,0.55
2018-06-25T17:00:13.486Z,0.58
2018-06-25T17:06:08.534Z,0.53
2018-06-25T17:12:03.501Z,0.43
2018-06-25T17:17:58.498Z,0.71
2018-06-25T17:23:53.477Z,0.63
2018-06-25T17:29:48.524Z,0.43
2018-06-25T17:35:43.516Z,0.72
2018-06-25T17:41:38.551Z,0.68
2018-06-25T17:47:33.483Z,0.67
2018-06-25T17:53:28.507Z,0.74
2018-06-25T17:59:23.526Z,0.78
2018-06-25T18:05:18.586Z,0.72
2018-06-25T18:11:13.581Z,0.7
2018-06-25T18:17:08.532Z,0.8
2018-06-25T18:23:03.561Z,0.87
2018-06-25T18:28:58.554Z,0.8
2018-06-25T18:34:53.586Z,0.84
2018-06-25T18:40:48.589Z,0.92
2018-06-25T18:46:43.579Z,0.87
2018-06-25T18:52:38.545Z,0.68
2018-06-25T18:58:33.612Z,1.1
2018-06-25T19:04:28.638Z,0.87
2018-06-25T19:10:23.671Z,1.2
2018-06-25T19:16:18.598Z,0.96
2018-06-25T19:22:13.653Z,1.06
2018-06-25T19:28:08.617Z,1.74
2018-06-25T19:34:03.657Z,0.86
2018-06-25T19:39:58.646Z,0.81
2018-06-25T19:45:53.650Z,0.78
2018-06-25T19:51:48.613Z,0.82
2018-06-25T19:57:43.627Z,0.75
2018-06-25T20:03:38.612Z,0.77
2018-06-25T20:09:33.687Z,0.73
2018-06-25T20:15:28.664Z,0.91
2018-06-25T20:21:23.603Z,0.94
2018-06-25T20:27:18.853Z,0.8
2018-06-25T20:33:13.834Z,1.02
2018-06-25T20:39:08.675Z,1.33
2018-06-25T20:45:03.702Z,1.13
2018-06-25T20:50:58.792Z,1.82
2018-06-25T20:56:53.734Z,0.91
2018-06-25T21:02:48.801Z,0.85
2018-06-25T21:08:43.727Z,1.07
2018-06-25T21:14:38.695Z,0.91
2018-06-25T21:20:33.680Z,0.93
2018-06-25T21:26:28.696Z,0.96
2018-06-25T21:32:23.693Z,1.38
2018-06-25T21:38:18.745Z,1.05
2018-06-25T21:44:13.703Z,0.93
2018-06-25T21:50:08.717Z,1.05
2018-06-25T21:56:03.725Z,0.93
2018-06-25T22:01:58.718Z,1.04
2018-06-25T22:07:53.786Z,1.05
2018-06-25T22:13:48.736Z,1.02
2018-06-25T22:19:43.945Z,0.93
2018-06-25T22:25:38.743Z,1.04
2018-06-25T22:31:33.755Z,0.89
2018-06-25T22:37:28.730Z,0.85
2018-06-25T22:43:23.799Z,0.93
2018-06-25T22:49:18.820Z,1.2
2018-06-25T22:55:13.804Z,1.12
2018-06-25T23:01:08.772Z,1.36
2018-06-25T23:07:03.787Z,1.37
2018-06-25T23:12:58.825Z,2.08
2018-06-25T23:18:53.766Z,2.47
2018-06-25T23:24:48.768Z,2.71
2018-06-25T23:30:43.796Z,2.07
2018-06-25T23:36:38.783Z,2.12
2018-06-25T23:42:33.778Z,2.2
2018-06-25T23:48:28.800Z,1.48
2018-06-25T23:54:23.748Z,1.51
